Time;durP1;ratioP1;P1;durP2;ratioP2;P2;SDS_P1;SDS_P2;PMS_P1;PMS_P2;Temp;Humidity;BMP_temperature;BMP_pressure;BME280_temperature;BME280_humidity;BME280_pressure;Samples;Min_cycle;Max_cycle;Signal;HPM_P1;HPM_P2
2022/12/15 00:39:59;;;;;;;36.23;13.68;;;;;;;0.56;75.34;98197.65;1639775;86;21065;-75
2022/12/15 00:42:27;;;;;;;32.38;14.10;;;;;;;0.62;75.43;98207.44;1632815;86;21082;-75
2022/12/15 00:44:58;;;;;;;28.20;12.45;;;;;;;0.66;75.53;98210.45;1642580;86;21086;-75
2022/12/15 00:47:24;;;;;;;39.55;14.75;;;;;;;0.69;75.46;98211.28;1635949;86;21058;-76
2022/12/15 01:20:33;;;;;;;37.45;16.23;;;;;;;0.86;77.47;98208.73;1634703;86;21026;-75
2022/12/15 01:22:43;;;;;;;32.03;13.70;;;;;;;0.88;77.46;98207.47;1630477;86;21967;-76
2022/12/15 01:25:10;;;;;;;39.05;15.45;;;;;;;0.88;77.43;98205.75;1640970;86;21074;-75
2022/12/15 01:27:36;;;;;;;33.48;14.03;;;;;;;0.88;76.62;98211.30;1639603;86;21097;-75
2022/12/15 01:30:06;;;;;;;36.83;15.65;;;;;;;0.86;76.61;98214.29;1636645;86;21039;-75
2022/12/15 01:32:33;;;;;;;35.50;13.30;;;;;;;0.86;76.55;98214.29;1641227;86;21598;-75
2022/12/15 01:35:00;;;;;;;35.80;15.18;;;;;;;0.81;76.55;98212.14;1632185;86;21453;-75
2022/12/15 01:37:26;;;;;;;29.67;12.68;;;;;;;0.81;77.39;98214.27;1638762;86;21029;-75
2022/12/15 01:42:37;;;;;;;37.35;13.62;;;;;;;0.82;75.76;98219.83;1643175;86;21522;-75
2022/12/15 01:45:32;;;;;;;34.38;16.87;;;;;;;0.79;75.96;98222.38;1634469;86;20955;-75
2022/12/15 01:48:12;;;;;;;29.60;11.95;;;;;;;0.77;75.73;98222.37;1642569;86;21896;-76
2022/12/15 01:50:50;;;;;;;34.35;14.75;;;;;;;0.74;75.71;98222.38;1636172;86;21003;-75
2022/12/15 01:53:17;;;;;;;29.10;12.13;;;;;;;0.73;76.03;98219.38;1625053;86;21062;-75
2022/12/15 01:55:45;;;;;;;33.60;14.55;;;;;;;0.75;76.14;98225.79;1638124;86;21840;-75
2022/12/15 01:58:15;;;;;;;37.20;15.10;;;;;;;0.75;76.41;98221.52;1643168;86;21015;-75
2022/12/15 02:00:42;;;;;;;32.55;13.00;;;;;;;0.77;76.91;98226.20;1640836;86;21039;-75
2022/12/15 02:03:09;;;;;;;32.42;14.78;;;;;;;0.78;77.07;98227.08;1641784;86;21508;-75
2022/12/15 02:05:36;;;;;;;35.05;13.72;;;;;;;0.79;76.51;98224.94;1634720;86;21082;-76
2022/12/15 02:08:04;;;;;;;37.58;14.78;;;;;;;0.78;77.35;98224.09;1638791;86;21038;-76
2022/12/15 02:10:36;;;;;;;29.25;13.00;;;;;;;0.79;76.31;98227.05;1633228;86;20975;-75
2022/12/15 02:13:23;;;;;;;39.65;15.80;;;;;;;0.74;76.56;98227.50;1635909;86;21055;-75
2022/12/15 02:16:20;;;;;;;32.78;13.88;;;;;;;0.72;76.11;98230.48;1634359;86;21562;-75
2022/12/15 02:19:00;;;;;;;33.48;13.45;;;;;;;0.67;76.60;98229.62;1642941;86;21014;-75
2022/12/15 02:21:35;;;;;;;32.78;13.50;;;;;;;0.63;77.22;98221.95;1602762;87;21538;-75
2022/12/15 02:24:39;;;;;;;37.63;14.60;;;;;;;0.65;77.73;98226.64;1626651;87;21063;-75
2022/12/15 02:27:45;;;;;;;28.15;12.82;;;;;;;0.70;76.62;98231.34;1622531;87;20984;-75
2022/12/15 02:30:29;;;;;;;34.80;14.25;;;;;;;0.64;77.43;98220.68;1620644;87;21082;-75
2022/12/15 02:33:23;;;;;;;32.00;13.95;;;;;;;0.65;78.29;98221.52;1613633;87;21055;-75
2022/12/15 02:35:59;;;;;;;27.20;13.38;;;;;;;0.64;78.41;98220.68;1627543;87;20972;-75
2022/12/15 02:38:35;;;;;;;36.10;15.10;;;;;;;0.67;77.04;98237.30;1623681;87;21003;-74
2022/12/15 02:41:05;;;;;;;28.98;13.25;;;;;;;0.64;77.69;98232.59;1631750;86;21015;-74
2022/12/15 02:43:35;;;;;;;30.77;14.07;;;;;;;0.62;77.53;98239.41;1626703;87;21059;-75
2022/12/15 02:46:16;;;;;;;29.35;11.80;;;;;;;0.61;78.69;98236.45;1629492;87;21035;-75
2022/12/15 02:49:14;;;;;;;33.53;15.08;;;;;;;0.64;78.41;98235.15;1621783;87;21047;-75
2022/12/15 02:51:48;;;;;;;28.20;12.80;;;;;;;0.66;77.46;98230.48;1611914;87;21052;-75
2022/12/15 02:54:41;;;;;;;34.33;15.88;;;;;;;0.63;79.52;98237.30;1612297;87;21123;-75
2022/12/15 02:57:19;;;;;;;27.27;11.83;;;;;;;0.64;77.59;98238.59;1625802;87;21492;-75
2022/12/15 02:59:54;;;;;;;36.55;15.40;;;;;;;0.63;77.44;98238.14;1599606;87;21599;-75
2022/12/15 03:02:25;;;;;;;29.67;14.03;;;;;;;0.57;79.56;98231.31;1627037;87;21861;-75
2022/12/15 03:04:52;;;;;;;36.75;15.18;;;;;;;0.58;79.23;98222.80;1615967;87;21127;-76
2022/12/15 03:07:19;;;;;;;36.75;14.18;;;;;;;0.58;78.84;98234.31;1628686;87;21865;-75
2022/12/15 03:09:45;;;;;;;39.33;14.98;;;;;;;0.56;78.79;98240.28;1614871;87;20999;-75
2022/12/15 03:12:12;;;;;;;39.05;15.93;;;;;;;0.53;78.30;98238.98;1629396;87;21051;-75
2022/12/15 03:14:39;;;;;;;35.33;13.78;;;;;;;0.51;78.22;98241.53;1620858;87;21000;-75
2022/12/15 03:17:06;;;;;;;37.80;14.93;;;;;;;0.49;79.04;98237.28;1626113;87;21027;-75
2022/12/15 03:19:33;;;;;;;32.05;13.10;;;;;;;0.52;78.37;98247.09;1629303;87;21852;-75
2022/12/15 03:21:59;;;;;;;35.40;15.72;;;;;;;0.46;79.73;98245.81;1629184;87;21086;-76
2022/12/15 03:24:26;;;;;;;30.17;13.15;;;;;;;0.50;78.69;98251.36;1623216;87;21035;-75
2022/12/15 03:26:52;;;;;;;36.38;15.28;;;;;;;0.42;79.16;98238.98;1622351;87;21027;-75
2022/12/15 03:29:19;;;;;;;34.03;15.53;;;;;;;0.49;78.36;98256.46;1627531;86;21114;-75
2022/12/15 03:31:45;;;;;;;31.00;14.03;;;;;;;0.49;78.66;98252.62;1619020;87;21481;-76
2022/12/15 03:34:12;;;;;;;31.62;14.43;;;;;;;0.51;78.58;98260.72;1623905;87;21063;-75
2022/12/15 03:36:38;;;;;;;32.03;14.03;;;;;;;0.52;78.77;98252.21;1615619;87;20999;-75
2022/12/15 03:39:05;;;;;;;31.93;14.33;;;;;;;0.56;78.97;98256.91;1625458;87;21644;-75
2022/12/15 03:41:32;;;;;;;33.78;14.75;;;;;;;0.61;78.90;98263.30;1616003;87;21155;-73
2022/12/15 03:43:59;;;;;;;32.42;13.83;;;;;;;0.63;78.77;98266.72;1622679;87;21507;-75
2022/12/15 03:46:25;;;;;;;35.15;14.18;;;;;;;0.66;78.42;98266.73;1619568;87;21066;-75
2022/12/15 03:48:53;;;;;;;31.87;14.18;;;;;;;0.64;78.56;98269.69;1619227;87;21555;-76
2022/12/15 03:51:20;;;;;;;36.28;14.68;;;;;;;0.64;78.47;98276.95;1620758;87;21090;-75
2022/12/15 03:53:48;;;;;;;37.65;15.38;;;;;;;0.66;78.12;98271.42;1603712;87;21070;-75
2022/12/15 03:56:16;;;;;;;34.43;15.98;;;;;;;0.65;78.35;98282.48;1617513;87;21007;-75
2022/12/15 03:58:43;;;;;;;40.85;13.55;;;;;;;0.68;78.33;98277.82;1620080;87;22163;-75
2022/12/15 04:01:14;;;;;;;38.40;17.00;;;;;;;0.69;78.42;98270.56;1620971;87;21055;-75
2022/12/15 04:03:40;;;;;;;44.35;17.40;;;;;;;0.71;78.44;98269.70;1616924;86;21067;-75
2022/12/15 04:06:07;;;;;;;41.25;16.12;;;;;;;0.71;78.52;98265.02;1614970;87;21541;-75
2022/12/15 04:08:33;;;;;;;45.65;19.52;;;;;;;0.72;78.36;98262.90;1612232;87;21071;-75
2022/12/15 04:11:00;;;;;;;37.33;16.12;;;;;;;0.71;78.39;98268.86;1624847;87;21362;-75
2022/12/15 04:13:26;;;;;;;38.02;16.15;;;;;;;0.70;78.91;98260.33;1616873;87;21078;-75
2022/12/15 04:15:53;;;;;;;41.18;15.85;;;;;;;0.71;79.20;98267.58;1628310;87;21036;-74
2022/12/15 04:18:20;;;;;;;36.75;16.07;;;;;;;0.71;79.46;98258.19;1628175;87;21058;-75
2022/12/15 04:20:47;;;;;;;29.77;13.45;;;;;;;0.74;79.88;98268.44;1628128;87;21171;-76
2022/12/15 04:23:13;;;;;;;32.17;14.80;;;;;;;0.74;80.17;98267.59;1621231;86;21066;-76
2022/12/15 05:32:21;;;;;;;42.08;18.40;;;;;;;0.81;80.48;98344.77;1636860;86;21114;-75
2022/12/15 05:34:47;;;;;;;41.13;18.57;;;;;;;0.80;80.65;98345.64;1641014;86;21034;-76
2022/12/15 05:37:14;;;;;;;41.92;17.50;;;;;;;0.77;80.51;98354.14;1635918;86;21026;-75
2022/12/15 05:39:41;;;;;;;35.43;15.78;;;;;;;0.74;80.67;98353.30;1641851;86;21086;-75
2022/12/15 05:42:07;;;;;;;45.65;19.50;;;;;;;0.70;80.29;98351.16;1628276;86;21304;-75
2022/12/15 05:44:34;;;;;;;36.03;16.65;;;;;;;0.66;80.63;98352.44;1641366;86;21062;-75
2022/12/15 05:47:01;;;;;;;41.13;18.55;;;;;;;0.65;80.76;98368.19;1631957;86;21069;-75
2022/12/15 05:49:27;;;;;;;41.02;16.62;;;;;;;0.67;80.36;98375.44;1638763;86;21382;-76
2022/12/15 05:51:54;;;;;;;36.28;16.30;;;;;;;0.66;80.25;98369.91;1634491;86;21057;-76
2022/12/15 05:54:20;;;;;;;46.45;19.48;;;;;;;0.67;80.67;98382.27;1641834;86;21030;-75
2022/12/15 05:56:47;;;;;;;40.92;15.63;;;;;;;0.68;81.06;98377.16;1638016;86;21069;-76
2022/12/15 05:59:15;;;;;;;46.63;18.98;;;;;;;0.66;81.70;98379.30;1634818;86;21042;-74
2022/12/15 06:01:41;;;;;;;46.05;16.90;;;;;;;0.68;81.46;98387.83;1638761;86;21054;-75
2022/12/15 06:04:15;;;;;;;43.10;19.45;;;;;;;0.62;81.24;98382.27;1637223;86;21042;-76
2022/12/15 06:06:40;;;;;;;43.83;18.17;;;;;;;0.69;80.91;98394.64;1639131;86;21074;-75
2022/12/15 06:09:08;;;;;;;47.67;19.30;;;;;;;0.69;81.29;98393.36;1636315;86;21045;-75
2022/12/15 06:11:36;;;;;;;43.45;18.10;;;;;;;0.68;81.42;98389.11;1642079;86;21106;-75
2022/12/15 06:14:03;;;;;;;48.63;18.02;;;;;;;0.67;81.58;98392.50;1634384;86;21010;-75
2022/12/15 06:16:29;;;;;;;50.10;18.92;;;;;;;0.65;81.31;98393.77;1642034;86;21111;-75
2022/12/15 06:18:59;;;;;;;41.30;16.57;;;;;;;0.65;81.20;98398.03;1634095;86;21035;-75
2022/12/15 06:21:30;;;;;;;41.80;17.52;;;;;;;0.62;81.12;98407.84;1642139;86;21030;-75
2022/12/15 06:23:57;;;;;;;34.33;14.07;;;;;;;0.64;79.98;98416.78;1606914;86;21045;-75
2022/12/15 06:26:28;;;;;;;38.10;17.62;;;;;;;0.62;80.54;98424.47;1597833;88;21080;-76
2022/12/15 06:28:58;;;;;;;40.90;16.77;;;;;;;0.62;81.20;98428.31;1593122;88;21504;-75
2022/12/15 06:31:26;;;;;;;43.17;19.70;;;;;;;0.65;81.43;98426.17;1597533;88;21072;-75
2022/12/15 06:33:54;;;;;;;41.20;18.57;;;;;;;0.67;81.40;98433.44;1597235;88;21080;-75
2022/12/15 06:36:24;;;;;;;38.58;17.25;;;;;;;0.69;81.74;98437.70;1602430;88;21071;-75
2022/12/15 06:38:52;;;;;;;47.30;19.82;;;;;;;0.71;82.01;98432.16;1593682;88;21009;-75
2022/12/15 06:41:21;;;;;;;39.38;17.77;;;;;;;0.73;81.21;98444.97;1593871;88;21082;-75
2022/12/15 06:43:54;;;;;;;63.75;26.65;;;;;;;0.69;81.11;98445.80;1595277;88;21136;-75
2022/12/15 06:46:22;;;;;;;55.28;27.20;;;;;;;0.62;81.52;98453.89;1584318;86;22433;-75
2022/12/15 06:48:49;;;;;;;45.38;20.77;;;;;;;0.59;82.51;98463.66;1617774;86;21097;-75
2022/12/15 06:51:16;;;;;;;52.08;19.15;;;;;;;0.62;82.25;98471.80;1588232;88;21064;-75
2022/12/15 06:53:52;;;;;;;40.58;18.62;;;;;;;0.64;82.13;98474.34;1595138;88;21184;-75
2022/12/15 06:56:29;;;;;;;40.92;18.20;;;;;;;0.65;81.56;98481.18;1593164;88;21412;-74
2022/12/15 06:58:57;;;;;;;42.30;17.80;;;;;;;0.70;81.91;98482.07;1595031;88;21897;-75
2022/12/15 07:01:24;;;;;;;39.58;17.12;;;;;;;0.79;82.70;98479.53;1594239;88;21073;-75
2022/12/15 07:03:53;;;;;;;75.37;33.25;;;;;;;0.89;82.46;98487.67;1596017;88;21021;-75
2022/12/15 07:06:19;;;;;;;61.75;28.30;;;;;;;0.98;82.62;98497.95;1581425;88;21069;-75
2022/12/15 07:08:52;;;;;;;58.98;25.55;;;;;;;1.08;82.91;98489.04;1598568;88;21043;-75
2022/12/15 07:11:20;;;;;;;53.38;25.37;;;;;;;1.17;82.92;98495.05;1582305;88;21104;-75
2022/12/15 07:13:52;;;;;;;47.33;21.10;;;;;;;1.24;82.27;98493.78;1591900;88;21125;-75
2022/12/15 07:16:21;;;;;;;45.35;19.92;;;;;;;1.30;81.95;98494.64;1594065;88;21074;-76
2022/12/15 07:18:48;;;;;;;47.62;18.62;;;;;;;1.33;81.75;98494.66;1600296;88;21001;-76
2022/12/15 07:21:14;;;;;;;45.52;18.52;;;;;;;1.41;81.82;98511.73;1591021;88;21041;-76
2022/12/15 07:23:41;;;;;;;56.25;19.77;;;;;;;1.48;81.65;98509.63;1597098;86;21057;-76
2022/12/15 07:26:09;;;;;;;48.35;21.00;;;;;;;1.53;81.56;98507.50;1596043;88;21053;-76
2022/12/15 07:28:37;;;;;;;45.40;18.95;;;;;;;1.59;81.48;98511.36;1595617;88;21084;-76
2022/12/15 07:31:06;;;;;;;43.65;18.17;;;;;;;1.67;81.55;98506.65;1591740;88;21060;-76
2022/12/15 07:33:35;;;;;;;45.08;20.02;;;;;;;1.70;81.46;98512.64;1591329;88;21096;-76
2022/12/15 07:36:03;;;;;;;45.58;19.52;;;;;;;1.76;81.44;98521.61;1600633;88;21013;-75
2022/12/15 07:38:30;;;;;;;37.88;16.35;;;;;;;1.81;81.31;98526.77;1594856;88;21044;-76
2022/12/15 07:41:02;;;;;;;41.18;17.95;;;;;;;1.79;80.83;98525.47;1595863;88;21581;-76
2022/12/15 07:43:29;;;;;;;39.13;15.85;;;;;;;1.83;80.84;98530.19;1596152;88;21029;-76
2022/12/15 07:45:56;;;;;;;46.77;19.42;;;;;;;1.84;80.76;98531.88;1594946;88;22066;-76
2022/12/15 07:48:22;;;;;;;43.10;19.48;;;;;;;1.87;80.99;98528.45;1580795;88;21016;-76
2022/12/15 07:50:50;;;;;;;42.00;19.32;;;;;;;1.91;80.66;98532.72;1596592;88;21053;-76
2022/12/15 07:53:17;;;;;;;52.40;20.60;;;;;;;1.91;81.19;98537.85;1598043;88;21533;-75
2022/12/15 07:55:43;;;;;;;46.45;18.87;;;;;;;1.96;81.23;98535.72;1591495;88;20993;-76
2022/12/15 07:58:10;;;;;;;44.77;18.87;;;;;;;2.01;81.00;98538.31;1594356;88;21106;-76
2022/12/15 08:00:36;;;;;;;48.05;19.48;;;;;;;2.05;81.26;98540.42;1582062;88;21096;-76
2022/12/15 08:03:03;;;;;;;42.58;16.27;;;;;;;2.09;81.38;98543.01;1597234;88;21595;-76
2022/12/15 08:05:29;;;;;;;42.67;18.62;;;;;;;2.11;81.16;98543.86;1597169;88;21057;-76
2022/12/15 08:07:57;;;;;;;32.73;14.75;;;;;;;2.13;80.84;98550.25;1593139;88;21099;-76
2022/12/15 08:10:24;;;;;;;36.20;16.17;;;;;;;2.13;81.10;98550.25;1595349;88;21020;-75
2022/12/15 08:12:52;;;;;;;47.43;16.65;;;;;;;2.11;80.75;98560.53;1592327;88;20973;-75
2022/12/15 08:15:18;;;;;;;49.33;16.05;;;;;;;2.10;80.50;98570.78;1599029;88;21089;-75
2022/12/15 08:17:45;;;;;;;41.33;17.95;;;;;;;2.01;81.15;98575.48;1597251;88;21033;-75
2022/12/15 08:20:13;;;;;;;44.98;17.37;;;;;;;1.97;81.64;98575.91;1564311;90;21024;-76
2022/12/15 08:22:40;;;;;;;53.73;19.95;;;;;;;1.93;81.99;98576.76;1549564;90;21040;-75
2022/12/15 08:25:08;;;;;;;47.25;20.30;;;;;;;1.92;81.98;98580.59;1580300;89;20998;-75
2022/12/15 08:27:34;;;;;;;47.98;19.25;;;;;;;1.92;82.20;98583.16;1626440;86;21016;-76
2022/12/15 08:30:01;;;;;;;45.25;20.72;;;;;;;1.93;82.75;98591.26;1623795;86;21380;-75
2022/12/15 08:32:28;;;;;;;42.13;18.62;;;;;;;1.91;82.73;98593.84;1631259;86;21051;-76
2022/12/15 08:34:54;;;;;;;40.80;18.17;;;;;;;1.91;82.67;98595.53;1624292;86;21054;-75
2022/12/15 08:37:20;;;;;;;54.75;20.45;;;;;;;1.91;83.04;98587.84;1624547;86;21134;-76
2022/12/15 08:39:47;;;;;;;59.50;23.60;;;;;;;1.91;82.96;98585.27;1626740;86;21098;-76
2022/12/15 08:42:14;;;;;;;53.52;19.42;;;;;;;1.90;82.08;98587.42;1628913;86;21003;-75
2022/12/15 08:44:40;;;;;;;35.85;16.23;;;;;;;1.85;83.53;98587.43;1625105;86;21608;-77
2022/12/15 08:47:07;;;;;;;41.68;17.12;;;;;;;1.84;84.68;98586.14;1615186;86;21074;-76
2022/12/15 08:49:33;;;;;;;34.50;14.90;;;;;;;1.90;83.61;98586.99;1612428;87;21089;-76
2022/12/15 08:52:00;;;;;;;36.25;16.10;;;;;;;1.93;83.42;98583.56;1619398;86;22094;-76
2022/12/15 08:54:26;;;;;;;41.33;14.55;;;;;;;1.93;85.75;98575.47;1623233;87;21066;-75
2022/12/15 08:56:52;;;;;;;41.77;16.23;;;;;;;2.02;85.27;98581.03;1622617;87;21031;-76
2022/12/15 08:59:19;;;;;;;39.33;16.30;;;;;;;2.07;85.95;98584.87;1620743;86;21064;-76
2022/12/15 09:01:46;;;;;;;43.63;15.83;;;;;;;2.13;85.88;98580.62;1619799;87;21067;-75
2022/12/15 09:04:12;;;;;;;45.23;16.70;;;;;;;2.14;86.42;98582.31;1620663;86;21099;-76
2022/12/15 09:06:39;;;;;;;37.55;16.90;;;;;;;2.21;87.08;98586.16;1624398;87;21038;-76
2022/12/15 09:09:10;;;;;;;31.70;15.90;;;;;;;2.25;87.22;98590.03;1608925;87;21067;-76
2022/12/15 09:11:36;;;;;;;39.98;17.65;;;;;;;2.29;87.44;98589.17;1619860;86;21126;-75
2022/12/15 09:14:03;;;;;;;44.48;16.67;;;;;;;2.28;86.89;98592.58;1620438;87;21102;-75
2022/12/15 09:16:30;;;;;;;42.67;18.95;;;;;;;2.30;88.70;98596.00;1624258;87;21099;-76
2022/12/15 09:18:58;;;;;;;40.00;18.17;;;;;;;2.34;88.30;98593.86;1624775;87;21055;-76
2022/12/15 09:21:28;;;;;;;37.30;16.42;;;;;;;2.42;87.77;98592.58;1629820;86;21416;-75
2022/12/15 09:24:00;;;;;;;35.80;14.75;;;;;;;2.50;88.74;98592.14;1626653;86;21569;-75
2022/12/15 09:26:30;;;;;;;31.77;14.10;;;;;;;2.62;87.86;98590.42;1635271;86;21069;-75
2022/12/15 09:28:57;;;;;;;34.38;14.00;;;;;;;2.67;88.95;98582.31;1637476;86;21081;-76
2022/12/15 09:31:28;;;;;;;29.30;12.23;;;;;;;2.78;88.28;98580.55;1638149;86;21133;-76
2022/12/15 09:33:57;;;;;;;28.62;12.90;;;;;;;2.85;88.30;98582.27;1632119;86;21082;-75
2022/12/15 09:36:25;;;;;;;28.85;12.03;;;;;;;2.92;88.32;98576.23;1638239;86;21033;-76
2022/12/15 09:38:52;;;;;;;30.57;11.57;;;;;;;3.01;87.86;98572.80;1643142;86;21050;-76
2022/12/15 09:41:26;;;;;;;32.88;14.43;;;;;;;3.08;87.69;98578.33;1636410;86;21114;-76
2022/12/15 09:44:04;;;;;;;30.15;14.18;;;;;;;3.09;87.79;98574.91;1641379;86;21089;-75
2022/12/15 09:47:00;;;;;;;32.45;14.18;;;;;;;3.15;87.47;98574.05;1629161;86;21035;-74
2022/12/15 09:49:56;;;;;;;28.55;13.08;;;;;;;3.20;87.29;98572.30;1658280;84;21042;-76
2022/12/15 09:52:49;;;;;;;30.88;12.88;;;;;;;3.27;86.84;98572.70;1656371;84;21171;-75
2022/12/15 09:55:27;;;;;;;25.17;12.40;;;;;;;3.35;87.18;98573.52;1652562;84;21074;-77
2022/12/15 09:58:20;;;;;;;26.93;12.68;;;;;;;3.45;86.02;98577.34;1653823;84;22183;-76
2022/12/15 10:00:58;;;;;;;29.00;13.72;;;;;;;3.50;86.12;98579.45;1668009;84;21073;-76
2022/12/15 10:04:03;;;;;;;27.02;13.10;;;;;;;3.56;86.47;98585.84;1651490;84;21093;-76
2022/12/15 10:06:37;;;;;;;27.70;12.58;;;;;;;3.61;86.19;98588.41;1654591;84;21986;-77
2022/12/15 10:09:29;;;;;;;23.07;10.60;;;;;;;3.71;85.96;98590.91;1659089;84;21073;-76
2022/12/15 10:14:58;;;;;;;24.27;10.80;;;;;;;3.90;85.38;98581.79;1678041;85;21103;-75
2022/12/15 10:17:47;;;;;;;28.75;11.05;;;;;;;4.01;85.42;98580.45;1663047;85;21017;-75
2022/12/15 10:20:30;;;;;;;25.08;10.78;;;;;;;4.09;85.83;98573.08;1674222;84;21496;-76
2022/12/15 10:23:13;;;;;;;21.95;9.80;;;;;;;4.22;85.84;98576.44;1676950;84;21091;-76
2022/12/15 10:25:56;;;;;;;22.93;10.50;;;;;;;4.32;85.91;98570.78;1677913;85;21016;-75
2022/12/15 10:28:43;;;;;;;30.77;11.88;;;;;;;4.46;86.06;98572.80;1677608;85;22140;-76
2022/12/15 10:31:24;;;;;;;26.33;13.05;;;;;;;4.61;85.97;98577.38;1678482;84;21036;-76
2022/12/15 10:34:02;;;;;;;24.30;12.03;;;;;;;4.71;85.57;98580.28;1607141;87;21140;-76
2022/12/15 10:36:28;;;;;;;25.52;11.18;;;;;;;4.79;85.27;98570.76;1628903;87;21044;-76
2022/12/15 10:38:55;;;;;;;24.23;11.18;;;;;;;4.86;84.86;98578.85;1627642;86;21056;-76
2022/12/15 10:41:25;;;;;;;29.23;11.73;;;;;;;4.91;84.74;98573.64;1627368;87;21088;-76
2022/12/15 10:43:53;;;;;;;26.52;12.25;;;;;;;4.97;84.51;98569.70;1629265;87;20997;-75
2022/12/15 10:46:26;;;;;;;27.80;12.03;;;;;;;5.03;84.49;98564.93;1627417;88;21076;-76
2022/12/15 10:48:59;;;;;;;21.60;10.82;;;;;;;5.09;83.92;98560.99;1624976;88;20984;-76
2022/12/15 10:51:42;;;;;;;29.98;13.20;;;;;;;5.14;83.84;98569.09;1627582;88;21504;-76
2022/12/15 10:54:15;;;;;;;27.98;12.53;;;;;;;5.23;83.84;98571.98;1627016;88;20941;-76
2022/12/15 10:56:52;;;;;;;29.67;12.85;;;;;;;5.32;83.40;98570.59;1627828;87;20949;-76
2022/12/15 10:59:35;;;;;;;27.27;11.83;;;;;;;5.40;83.38;98570.50;1626273;88;20976;-76
2022/12/15 11:02:28;;;;;;;28.00;12.63;;;;;;;5.52;83.51;98577.23;1629377;87;20980;-76
2022/12/15 11:05:14;;;;;;;24.63;12.23;;;;;;;5.64;83.46;98577.51;1629856;88;20985;-76
2022/12/15 11:08:03;;;;;;;27.85;12.75;;;;;;;5.76;83.16;98570.89;1626807;88;21028;-76
2022/12/15 11:13:22;;;;;;;31.30;13.08;;;;;;;5.96;82.86;98553.41;1615887;88;21139;-76
2022/12/15 11:15:55;;;;;;;30.30;11.90;;;;;;;6.10;82.75;98553.65;1594583;88;21674;-76
2022/12/15 11:18:45;;;;;;;27.82;14.20;;;;;;;6.22;82.68;98559.05;1594245;89;22293;-75
2022/12/15 11:21:25;;;;;;;27.15;12.70;;;;;;;6.30;82.05;98554.61;1588246;90;21065;-76
2022/12/15 11:24:06;;;;;;;29.50;14.33;;;;;;;6.37;80.36;98565.27;1591762;90;21136;-77
2022/12/15 11:26:53;;;;;;;26.73;13.08;;;;;;;6.44;80.46;98575.05;1596337;87;21027;-76
2022/12/15 11:29:25;;;;;;;33.10;15.78;;;;;;;6.53;80.75;98577.03;1588026;90;21058;-76
2022/12/15 11:31:54;;;;;;;34.55;15.65;;;;;;;6.51;80.13;98589.13;1593696;90;21110;-76
2022/12/15 11:34:31;;;;;;;31.87;13.38;;;;;;;6.52;79.66;98586.94;1597358;89;21065;-76
2022/12/15 11:37:39;;;;;;;24.35;12.85;;;;;;;6.54;80.18;98585.18;1589403;88;21106;-77
2022/12/15 11:40:33;;;;;;;34.58;13.65;;;;;;;6.45;79.92;98578.05;1592034;88;21402;-77
2022/12/15 11:43:06;;;;;;;;;;;;;;;6.37;79.26;98591.09;1595599;88;21525;-77
2022/12/15 11:46:01;;;;;;;33.05;15.53;;;;;;;6.30;78.92;98595.92;1591156;88;20169;-77
2022/12/15 11:49:00;;;;;;;40.50;16.32;;;;;;;6.15;77.71;98596.58;1593595;90;21090;-76
2022/12/15 11:51:47;;;;;;;38.98;18.77;;;;;;;6.08;78.38;98596.69;1595173;88;21043;-76
2022/12/15 11:54:45;;;;;;;41.73;19.20;;;;;;;6.25;77.99;98602.45;1589182;88;21587;-76
2022/12/15 11:57:47;;;;;;;39.83;19.62;;;;;;;6.79;76.92;98595.11;1596306;88;21044;-77
2022/12/15 12:00:20;;;;;;;36.03;18.67;;;;;;;7.41;75.41;98599.95;1565593;90;21596;-76
2022/12/15 12:03:01;;;;;;;43.70;19.37;;;;;;;7.96;72.02;98588.43;1555286;91;21186;-77
2022/12/15 12:05:45;;;;;;;37.80;18.17;;;;;;;8.38;70.63;98603.00;1573601;90;21123;-77
2022/12/15 12:08:36;;;;;;;37.83;18.20;;;;;;;8.77;71.10;98602.92;1591116;88;21122;-77
2022/12/15 12:11:15;;;;;;;39.38;18.02;;;;;;;9.07;67.22;98614.67;1581929;88;21102;-77
2022/12/15 12:14:03;;;;;;;36.93;17.80;;;;;;;9.13;69.08;98615.38;1603087;87;21585;-76
2022/12/15 12:16:44;;;;;;;35.23;17.57;;;;;;;9.14;67.71;98627.44;1662846;85;21078;-76
2022/12/15 12:19:25;;;;;;;41.00;18.77;;;;;;;8.71;67.78;98642.83;1664077;86;21064;-76
2022/12/15 12:21:57;;;;;;;42.27;18.12;;;;;;;8.26;67.83;98635.22;1661955;85;21009;-77
2022/12/15 12:24:41;;;;;;;37.35;18.07;;;;;;;7.85;68.41;98630.96;1663536;84;21076;-77
2022/12/15 12:27:32;;;;;;;45.55;18.87;;;;;;;7.56;68.90;98628.11;1660332;84;21111;-77
2022/12/15 12:30:07;;;;;;;35.43;16.95;;;;;;;7.34;69.40;98627.69;1659024;85;21044;-77
2022/12/15 12:33:18;;;;;;;37.83;17.65;;;;;;;7.06;70.73;98627.78;1663739;86;21533;-77
2022/12/15 12:36:13;;;;;;;36.50;16.82;;;;;;;6.95;71.00;98641.75;1666466;84;21040;-76
2022/12/15 12:38:50;;;;;;;33.75;16.02;;;;;;;6.76;72.37;98641.23;1662284;85;20973;-76
2022/12/15 12:41:47;;;;;;;33.08;17.52;;;;;;;6.63;72.02;98642.30;1662320;86;20953;-77
2022/12/15 12:44:34;;;;;;;35.92;17.07;;;;;;;6.51;72.21;98647.23;1650995;84;21572;-76
2022/12/15 12:47:22;;;;;;;35.88;16.90;;;;;;;6.47;73.01;98649.45;1661554;86;20973;-77
2022/12/15 12:49:57;;;;;;;38.75;18.48;;;;;;;6.32;72.49;98653.09;1658599;84;21920;-76
2022/12/15 12:52:29;;;;;;;45.48;20.88;;;;;;;6.29;72.88;98658.77;1666342;84;20989;-76
2022/12/15 12:55:12;;;;;;;43.38;18.90;;;;;;;6.18;73.17;98659.75;1664733;85;21112;-77
2022/12/15 12:57:41;;;;;;;;;;;;;;;6.13;72.63;98664.14;1668782;84;21048;-77
2022/12/15 13:00:15;;;;;;;44.55;17.20;;;;;;;6.11;72.85;98664.61;1659382;85;20144;-77
2022/12/15 13:02:56;;;;;;;41.30;18.30;;;;;;;6.06;72.64;98659.94;1662185;84;21052;-77
2022/12/15 13:05:31;;;;;;;37.05;17.82;;;;;;;6.00;72.83;98656.15;1667962;85;20965;-77
2022/12/15 13:08:09;;;;;;;40.83;19.05;;;;;;;6.00;73.22;98660.02;1630469;87;20987;-77
2022/12/15 13:10:42;;;;;;;37.30;19.02;;;;;;;5.94;73.39;98658.34;1613800;87;21508;-77
2022/12/15 13:13:31;;;;;;;32.17;15.58;;;;;;;5.89;73.31;98671.75;1613917;87;21815;-78
2022/12/15 13:16:12;;;;;;;41.48;17.15;;;;;;;5.89;73.37;98667.88;1665284;85;20985;-77
2022/12/15 13:19:03;;;;;;;43.90;16.55;;;;;;;5.82;73.71;98667.98;1664347;85;20985;-77
2022/12/15 13:21:51;;;;;;;38.85;15.85;;;;;;;5.78;73.83;98665.42;1669018;84;21965;-76
2022/12/15 13:24:36;;;;;;;39.10;16.27;;;;;;;5.82;74.63;98671.84;1665188;85;20997;-78
2022/12/15 13:27:14;;;;;;;41.30;18.80;;;;;;;5.80;74.55;98673.15;1656668;85;21580;-77
2022/12/15 13:30:02;;;;;;;46.42;19.05;;;;;;;5.82;74.51;98670.11;1663786;84;20992;-77
2022/12/15 13:32:36;;;;;;;45.78;21.52;;;;;;;5.88;75.23;98664.03;1661106;85;21117;-76
2022/12/15 13:35:24;;;;;;;44.45;19.92;;;;;;;5.89;74.59;98661.44;1659095;84;21056;-77
2022/12/15 13:37:58;;;;;;;42.70;19.00;;;;;;;5.92;74.85;98663.95;1664223;84;22029;-77
2022/12/15 13:40:41;;;;;;;45.67;19.98;;;;;;;5.88;74.23;98661.45;1667144;85;20974;-77
2022/12/15 13:43:28;;;;;;;47.75;19.00;;;;;;;5.85;74.36;98667.92;1667012;84;21007;-77
2022/12/15 13:46:04;;;;;;;41.73;19.48;;;;;;;5.84;74.23;98667.52;1595731;88;20987;-77
2022/12/15 13:48:42;;;;;;;43.95;19.70;;;;;;;5.80;74.35;98669.73;1616873;87;21560;-77
2022/12/15 13:51:29;;;;;;;46.70;18.62;;;;;;;5.76;74.02;98668.45;1602097;88;20989;-76
2022/12/15 13:54:14;;;;;;;46.33;19.40;;;;;;;5.76;74.22;98676.64;1608992;87;21097;-78
2022/12/15 13:57:09;;;;;;;47.17;17.67;;;;;;;5.73;73.83;98677.55;1611341;87;20980;-77
2022/12/15 14:00:06;;;;;;;46.08;18.70;;;;;;;5.70;73.45;98685.30;1666160;84;20997;-77
2022/12/15 14:02:36;;;;;;;39.38;19.35;;;;;;;5.69;73.81;98688.77;1665971;85;20997;-77
2022/12/15 14:05:19;;;;;;;49.42;20.92;;;;;;;5.65;73.83;98692.67;1665530;85;21004;-77
2022/12/15 14:07:56;;;;;;;36.40;16.82;;;;;;;5.62;73.72;98685.83;1663552;85;20993;-77
2022/12/15 14:10:27;;;;;;;35.17;17.10;;;;;;;5.58;72.94;98695.77;1660080;84;20982;-78
2022/12/15 14:12:56;;;;;;;41.15;17.75;;;;;;;5.54;73.05;98687.20;1665524;84;21402;-77
2022/12/15 14:15:30;;;;;;;34.33;16.12;;;;;;;5.50;73.13;98689.84;1638148;85;21069;-77
2022/12/15 14:17:58;;;;;;;;;;;;;;;5.47;72.75;98682.13;1647283;86;21037;-77
2022/12/15 14:20:29;;;;;;;41.88;17.77;;;;;;;5.41;72.27;98685.62;1641550;86;20144;-77
2022/12/15 14:22:55;;;;;;;44.85;18.10;;;;;;;5.36;71.89;98686.97;1637913;86;20982;-76